Time;durP1;ratioP1;P1;durP2;ratioP2;P2;SDS_P1;SDS_P2;PMS_P1;PMS_P2;Temp;Humidity;BMP_temperature;BMP_pressure;BME280_temperature;BME280_humidity;BME280_pressure;Samples;Min_cycle;Max_cycle;Signal;HPM_P1;HPM_P2
2023/04/28 00:00:54;;;;;;;22.80;13.70;;;7.40;99.90;;;;;;6186345;23;20168;-73
2023/04/28 00:03:21;;;;;;;23.80;14.27;;;7.40;99.90;;;;;;6186860;23;20242;-73
2023/04/28 00:05:48;;;;;;;16.85;13.35;;;7.30;99.90;;;;;;6186894;23;20531;-74
2023/04/28 00:08:15;;;;;;;17.58;15.05;;;7.30;99.90;;;;;;6186136;23;20693;-72
2023/04/28 00:10:44;;;;;;;23.65;13.85;;;7.20;99.90;;;;;;6185719;23;20217;-74
2023/04/28 00:13:11;;;;;;;23.63;14.13;;;7.20;99.90;;;;;;6186378;23;20198;-74
2023/04/28 00:15:38;;;;;;;19.50;14.70;;;7.20;99.90;;;;;;6186413;23;20186;-73
2023/04/28 00:18:05;;;;;;;22.63;15.75;;;7.10;99.90;;;;;;6186655;23;20201;-72
2023/04/28 00:20:32;;;;;;;21.42;14.60;;;7.10;99.90;;;;;;6185889;23;20577;-75
2023/04/28 00:22:59;;;;;;;20.17;14.80;;;7.10;99.90;;;;;;6186701;23;20194;-74
2023/04/28 00:25:26;;;;;;;20.92;15.77;;;7.10;99.90;;;;;;6186971;23;20167;-74
2023/04/28 00:27:54;;;;;;;21.23;15.32;;;7.10;99.90;;;;;;6186518;23;20546;-74
2023/04/28 00:30:21;;;;;;;18.92;14.52;;;7.00;99.90;;;;;;6185714;23;20221;-75
2023/04/28 00:32:48;;;;;;;21.48;15.18;;;7.10;99.90;;;;;;6186841;23;20225;-73
2023/04/28 00:35:15;;;;;;;21.58;13.48;;;7.10;99.90;;;;;;6187161;23;20205;-74
2023/04/28 00:37:42;;;;;;;22.50;13.95;;;7.10;99.90;;;;;;6188258;23;20615;-74
2023/04/28 00:40:10;;;;;;;26.73;16.30;;;7.00;99.90;;;;;;6188572;23;20217;-74
2023/04/28 00:42:37;;;;;;;19.88;15.85;;;7.10;99.90;;;;;;6190438;23;20197;-72
2023/04/28 00:45:06;;;;;;;22.73;14.88;;;7.10;99.90;;;;;;6190614;23;20170;-72
2023/04/28 00:47:34;;;;;;;17.88;13.00;;;7.10;99.90;;;;;;6190444;23;20174;-73
2023/04/28 00:50:01;;;;;;;24.00;15.25;;;7.00;99.90;;;;;;6186405;23;20202;-74
2023/04/28 00:52:28;;;;;;;24.17;14.07;;;7.00;99.90;;;;;;6186148;23;20171;-72
2023/04/28 00:54:55;;;;;;;19.48;14.15;;;6.90;99.90;;;;;;6186264;23;20184;-73
2023/04/28 00:57:22;;;;;;;25.35;16.77;;;7.00;99.90;;;;;;6186306;23;20525;-74
2023/04/28 00:59:49;;;;;;;17.90;14.73;;;7.00;99.90;;;;;;6184885;23;20691;-74
2023/04/28 01:02:18;;;;;;;21.77;17.17;;;7.00;99.90;;;;;;6186479;23;20188;-72
2023/04/28 01:04:45;;;;;;;19.52;14.52;;;6.90;99.90;;;;;;6185676;23;20615;-74
2023/04/28 01:07:12;;;;;;;18.50;14.60;;;6.90;99.90;;;;;;6186446;23;20163;-74
2023/04/28 01:09:39;;;;;;;20.17;14.73;;;6.90;99.90;;;;;;6185479;23;20226;-76
2023/04/28 01:12:07;;;;;;;29.70;15.18;;;6.90;99.90;;;;;;6186213;23;20492;-72
2023/04/28 01:14:34;;;;;;;21.60;15.95;;;6.90;99.90;;;;;;6186332;23;20491;-74
2023/04/28 01:17:01;;;;;;;23.83;15.43;;;6.90;99.90;;;;;;6184945;23;20195;-72
2023/04/28 01:19:31;;;;;;;21.65;14.68;;;6.90;99.90;;;;;;6185118;23;20202;-73
2023/04/28 01:21:58;;;;;;;21.20;15.30;;;6.90;99.90;;;;;;6186062;23;20203;-74
2023/04/28 01:24:26;;;;;;;22.40;15.15;;;6.90;99.90;;;;;;6186075;23;20201;-73
2023/04/28 01:26:53;;;;;;;23.30;15.02;;;6.90;99.90;;;;;;6185806;23;20196;-72
2023/04/28 01:29:20;;;;;;;24.23;15.98;;;6.90;99.90;;;;;;6185468;23;20236;-75
2023/04/28 01:31:47;;;;;;;18.27;14.50;;;7.00;99.90;;;;;;6185247;23;20239;-74
2023/04/28 01:34:14;;;;;;;20.70;16.83;;;6.90;99.90;;;;;;6185239;23;20195;-73
2023/04/28 01:36:41;;;;;;;23.98;14.77;;;6.90;99.90;;;;;;6186054;23;20192;-73
2023/04/28 01:39:08;;;;;;;22.50;15.70;;;6.80;99.90;;;;;;6185570;23;20260;-74
2023/04/28 01:41:36;;;;;;;20.60;13.13;;;6.90;99.90;;;;;;6184834;23;20218;-75
2023/04/28 01:44:04;;;;;;;24.10;15.82;;;6.90;99.90;;;;;;6185724;23;20667;-73
2023/04/28 01:46:31;;;;;;;20.60;13.75;;;6.90;99.90;;;;;;6185291;23;20200;-75
2023/04/28 01:48:59;;;;;;;21.50;14.73;;;6.90;99.90;;;;;;6185717;23;20255;-75
2023/04/28 01:51:26;;;;;;;20.77;14.38;;;6.80;99.90;;;;;;6185311;23;20550;-74
2023/04/28 01:53:53;;;;;;;23.27;14.45;;;6.80;99.90;;;;;;6185734;23;20207;-73
2023/04/28 01:56:20;;;;;;;17.10;13.32;;;6.70;99.90;;;;;;6185726;23;20221;-73
2023/04/28 01:58:48;;;;;;;19.50;13.82;;;6.80;99.90;;;;;;6185597;23;20241;-73
2023/04/28 02:01:15;;;;;;;18.70;13.40;;;6.70;99.90;;;;;;6184640;23;20203;-74
2023/04/28 02:03:42;;;;;;;18.85;13.88;;;6.70;99.90;;;;;;6185702;23;20245;-73
2023/04/28 02:06:09;;;;;;;18.90;13.98;;;6.60;99.90;;;;;;6185904;23;20157;-75
2023/04/28 02:08:35;;;;;;;17.20;13.40;;;6.60;99.90;;;;;;6185534;23;20232;-72
2023/04/28 02:11:03;;;;;;;20.33;12.55;;;6.60;99.90;;;;;;6185157;23;20539;-74
2023/04/28 02:13:29;;;;;;;18.05;12.95;;;6.50;99.90;;;;;;6185174;23;20197;-73
2023/04/28 02:16:01;;;;;;;19.95;12.38;;;6.60;99.90;;;;;;6185883;23;20257;-75
2023/04/28 02:18:28;;;;;;;19.63;12.63;;;6.50;99.90;;;;;;6184748;23;20164;-73
2023/04/28 02:20:56;;;;;;;22.60;12.85;;;6.60;99.90;;;;;;6191354;23;20273;-74
2023/04/28 02:23:23;;;;;;;18.42;12.30;;;6.50;99.90;;;;;;6185227;23;20240;-73
2023/04/28 02:25:50;;;;;;;17.30;12.15;;;6.50;99.90;;;;;;6185737;23;20241;-74
2023/04/28 02:28:16;;;;;;;20.67;13.70;;;6.60;99.90;;;;;;6185509;23;20184;-73
2023/04/28 02:30:43;;;;;;;18.67;12.70;;;6.50;99.90;;;;;;6184141;23;20171;-73
2023/04/28 02:33:12;;;;;;;20.27;11.80;;;6.50;99.90;;;;;;6185934;23;20244;-71
2023/04/28 02:35:38;;;;;;;19.80;12.93;;;6.40;99.90;;;;;;6185673;23;20223;-73
2023/04/28 02:38:05;;;;;;;18.35;13.32;;;6.40;99.90;;;;;;6185680;23;20245;-74
2023/04/28 02:40:32;;;;;;;16.10;12.48;;;6.40;99.90;;;;;;6184468;23;20685;-73
2023/04/28 02:42:59;;;;;;;18.67;13.13;;;6.40;99.90;;;;;;6183615;23;20248;-74
2023/04/28 02:45:26;;;;;;;15.20;11.75;;;6.40;99.90;;;;;;6185482;23;20478;-72
2023/04/28 02:47:53;;;;;;;17.17;12.77;;;6.40;99.90;;;;;;6183465;23;20170;-73
2023/04/28 02:50:21;;;;;;;15.68;11.00;;;6.50;99.90;;;;;;6185212;23;20281;-74
2023/04/28 02:52:48;;;;;;;14.85;11.07;;;6.50;99.90;;;;;;6185185;23;20195;-74
2023/04/28 02:55:22;;;;;;;18.38;11.43;;;6.60;99.90;;;;;;6185347;23;20568;-71
2023/04/28 02:57:49;;;;;;;18.08;12.02;;;6.60;99.90;;;;;;6158545;23;20188;-73
2023/04/28 03:00:16;;;;;;;13.70;11.18;;;6.60;99.90;;;;;;6184407;23;20267;-73
2023/04/28 03:02:43;;;;;;;18.38;12.63;;;6.60;99.90;;;;;;6185433;23;20498;-74
2023/04/28 03:05:10;;;;;;;18.40;12.55;;;6.60;99.90;;;;;;6184896;23;20241;-72
2023/04/28 03:07:38;;;;;;;18.38;12.52;;;6.60;99.90;;;;;;6184826;23;20166;-73
2023/04/28 03:10:06;;;;;;;16.63;13.05;;;6.60;99.90;;;;;;6184238;23;20508;-72
2023/04/28 03:12:33;;;;;;;13.27;10.25;;;6.50;99.90;;;;;;6185467;23;20546;-71
2023/04/28 03:15:00;;;;;;;14.30;11.23;;;6.50;99.90;;;;;;6186646;23;20270;-74
2023/04/28 03:17:27;;;;;;;17.88;11.98;;;6.40;99.90;;;;;;6187332;23;20166;-73
2023/04/28 03:19:54;;;;;;;16.55;12.70;;;6.30;99.90;;;;;;6185936;23;20198;-72
2023/04/28 03:22:21;;;;;;;14.52;9.68;;;6.30;99.90;;;;;;6187093;23;20169;-72
2023/04/28 03:24:49;;;;;;;17.17;11.25;;;6.30;99.90;;;;;;6188031;23;20180;-73
2023/04/28 03:27:16;;;;;;;15.55;10.93;;;6.30;99.90;;;;;;6189766;23;20166;-72
2023/04/28 03:29:43;;;;;;;16.52;9.93;;;6.30;99.90;;;;;;6190045;23;20223;-73
2023/04/28 03:32:10;;;;;;;13.05;10.07;;;6.20;99.90;;;;;;6191840;23;20162;-74
2023/04/28 03:34:37;;;;;;;13.63;10.00;;;6.20;99.90;;;;;;6191257;23;20166;-73
2023/04/28 03:37:04;;;;;;;12.32;9.23;;;6.20;99.90;;;;;;6191955;23;20192;-73
2023/04/28 03:39:31;;;;;;;13.05;9.73;;;6.20;99.90;;;;;;6188491;23;20280;-73
2023/04/28 03:41:59;;;;;;;20.02;11.63;;;6.20;99.90;;;;;;6187655;23;20243;-73
2023/04/28 03:44:27;;;;;;;11.43;8.82;;;6.20;99.90;;;;;;6186934;23;20216;-73
2023/04/28 03:46:54;;;;;;;16.27;9.32;;;6.20;99.90;;;;;;6187527;23;20246;-73
2023/04/28 03:49:21;;;;;;;15.10;10.52;;;6.20;99.90;;;;;;6186623;23;20224;-74
2023/04/28 03:51:48;;;;;;;12.63;9.45;;;6.30;99.90;;;;;;6186623;23;20241;-71
2023/04/28 03:54:15;;;;;;;14.15;10.48;;;6.30;99.90;;;;;;6187205;23;20165;-74
2023/04/28 03:56:42;;;;;;;15.10;9.23;;;6.30;99.90;;;;;;6186569;23;20223;-73
2023/04/28 03:59:11;;;;;;;10.68;9.07;;;6.40;99.90;;;;;;6186521;23;20727;-73
2023/04/28 04:01:38;;;;;;;14.32;9.45;;;6.50;99.90;;;;;;6184429;23;20165;-74
2023/04/28 04:04:05;;;;;;;12.85;8.45;;;6.40;99.90;;;;;;6185578;23;20565;-73
2023/04/28 04:06:32;;;;;;;10.93;8.25;;;6.50;99.90;;;;;;6185219;23;20163;-73
2023/04/28 04:08:59;;;;;;;15.02;8.20;;;6.60;99.90;;;;;;6186979;23;20207;-75
2023/04/28 04:11:26;;;;;;;11.00;8.27;;;6.60;99.90;;;;;;6186155;23;20197;-74
2023/04/28 04:13:53;;;;;;;18.55;8.15;;;6.60;99.90;;;;;;6185945;23;20167;-73
2023/04/28 04:16:21;;;;;;;13.18;9.05;;;6.60;99.90;;;;;;6186810;23;20298;-71
2023/04/28 04:18:48;;;;;;;10.27;7.88;;;6.70;99.90;;;;;;6186724;23;20231;-74
2023/04/28 04:21:15;;;;;;;15.10;7.90;;;6.70;99.90;;;;;;6185318;23;20255;-74
2023/04/28 04:23:42;;;;;;;10.02;7.57;;;6.80;99.90;;;;;;6186742;23;20190;-74
2023/04/28 04:26:09;;;;;;;10.73;8.77;;;6.70;99.90;;;;;;6186807;23;20163;-73
2023/04/28 04:28:36;;;;;;;9.50;8.25;;;6.70;99.90;;;;;;6186427;23;20270;-73
2023/04/28 04:31:03;;;;;;;13.45;7.43;;;6.80;99.90;;;;;;6185597;23;20194;-74
2023/04/28 04:33:31;;;;;;;15.52;7.68;;;6.80;99.90;;;;;;6186854;23;20243;-71
2023/04/28 04:35:58;;;;;;;10.02;6.70;;;6.90;99.90;;;;;;6186038;23;20182;-72
2023/04/28 04:38:25;;;;;;;9.38;7.05;;;7.00;99.90;;;;;;6186493;23;20249;-71
2023/04/28 04:40:52;;;;;;;10.55;8.13;;;7.00;99.90;;;;;;6185830;23;20167;-74
2023/04/28 04:43:20;;;;;;;8.85;6.32;;;7.10;99.90;;;;;;6186437;23;20242;-73
2023/04/28 04:45:47;;;;;;;17.13;7.88;;;7.10;99.90;;;;;;6186403;23;20164;-72
2023/04/28 04:48:14;;;;;;;8.85;7.05;;;7.20;99.90;;;;;;6186542;23;20163;-75
2023/04/28 04:50:42;;;;;;;9.98;7.22;;;7.20;99.90;;;;;;6186233;23;20293;-74
2023/04/28 04:53:09;;;;;;;8.25;6.55;;;7.30;99.90;;;;;;6186234;23;20554;-73
2023/04/28 04:55:36;;;;;;;10.23;7.72;;;7.30;99.90;;;;;;6185946;23;20558;-73
2023/04/28 04:58:03;;;;;;;9.55;7.18;;;7.40;99.90;;;;;;6185661;23;20190;-73
2023/04/28 05:00:30;;;;;;;10.07;6.72;;;7.40;99.90;;;;;;6185676;23;20235;-72
2023/04/28 05:02:57;;;;;;;8.65;7.50;;;7.50;99.90;;;;;;6186011;23;20502;-74
2023/04/28 05:05:23;;;;;;;14.20;7.25;;;7.50;99.90;;;;;;6186185;23;20191;-74
2023/04/28 05:07:52;;;;;;;13.18;6.45;;;7.60;99.90;;;;;;6185873;23;20226;-74
2023/04/28 05:10:19;;;;;;;12.02;7.35;;;7.60;99.90;;;;;;6185531;23;20207;-75
2023/04/28 05:12:46;;;;;;;9.85;8.43;;;7.70;99.90;;;;;;6186168;23;20165;-71
2023/04/28 05:15:14;;;;;;;11.13;6.28;;;7.80;99.90;;;;;;6185903;23;20268;-72
2023/04/28 05:17:41;;;;;;;8.68;6.72;;;7.90;99.90;;;;;;6185819;23;20619;-74
2023/04/28 05:20:09;;;;;;;15.57;7.00;;;8.10;99.90;;;;;;6184832;23;20231;-76
2023/04/28 05:22:36;;;;;;;13.05;6.57;;;8.20;99.90;;;;;;6185989;23;20252;-72
2023/04/28 05:25:04;;;;;;;9.50;5.97;;;8.40;99.90;;;;;;6187044;23;20171;-72
2023/04/28 05:27:31;;;;;;;7.03;6.32;;;8.60;99.90;;;;;;6188202;23;20244;-72
2023/04/28 05:29:58;;;;;;;8.32;6.15;;;8.90;99.90;;;;;;6186078;23;20227;-73
2023/04/28 05:32:26;;;;;;;6.95;5.43;;;9.30;99.90;;;;;;6185691;23;20178;-75
2023/04/28 05:34:53;;;;;;;7.65;5.05;;;9.70;99.90;;;;;;6186192;23;20165;-72
2023/04/28 05:37:19;;;;;;;7.25;5.80;;;10.00;99.90;;;;;;6185392;23;20633;-72
2023/04/28 05:39:46;;;;;;;8.90;5.50;;;10.40;99.90;;;;;;6185511;23;20565;-75
2023/04/28 05:42:15;;;;;;;12.45;5.78;;;10.60;98.80;;;;;;6186229;23;20172;-73
2023/04/28 05:44:41;;;;;;;10.93;6.00;;;10.60;98.10;;;;;;6185447;23;20160;-72
2023/04/28 05:47:08;;;;;;;8.18;5.22;;;10.70;97.50;;;;;;6185934;23;20159;-74
2023/04/28 05:49:35;;;;;;;9.32;4.97;;;10.80;97.20;;;;;;6184440;23;20282;-71
2023/04/28 05:52:03;;;;;;;10.18;6.00;;;11.00;96.70;;;;;;6186211;23;20263;-75
2023/04/28 05:54:30;;;;;;;6.75;5.03;;;11.10;96.00;;;;;;6185511;23;20197;-74
2023/04/28 05:56:57;;;;;;;10.70;5.95;;;10.90;95.70;;;;;;6185529;23;20281;-74
2023/04/28 05:59:27;;;;;;;11.23;5.43;;;11.00;95.30;;;;;;6185753;23;20205;-77
2023/04/28 06:01:54;;;;;;;10.00;4.68;;;11.30;95.20;;;;;;6185611;23;20166;-75
2023/04/28 06:04:21;;;;;;;9.07;4.97;;;11.60;94.60;;;;;;6185359;23;20168;-71
2023/04/28 06:06:48;;;;;;;5.78;4.55;;;11.70;93.80;;;;;;6188003;23;20203;-73
2023/04/28 06:09:15;;;;;;;7.38;4.35;;;11.80;93.00;;;;;;6185392;23;20319;-73
2023/04/28 06:11:42;;;;;;;12.95;5.18;;;12.00;92.50;;;;;;6185602;23;20190;-74
2023/04/28 06:14:09;;;;;;;9.10;4.63;;;11.90;92.40;;;;;;6185761;23;20199;-73
2023/04/28 06:16:38;;;;;;;6.95;5.28;;;12.00;92.10;;;;;;6185257;23;20703;-74
2023/04/28 06:19:05;;;;;;;7.90;4.70;;;11.90;92.40;;;;;;6185310;23;20287;-74
2023/04/28 06:21:32;;;;;;;13.27;5.40;;;11.70;92.40;;;;;;6185117;23;20219;-76
2023/04/28 06:23:59;;;;;;;5.55;4.75;;;11.50;92.50;;;;;;6185623;23;20594;-73
2023/04/28 06:26:26;;;;;;;7.72;4.63;;;11.20;92.90;;;;;;6185529;23;20168;-74
2023/04/28 06:28:53;;;;;;;6.15;4.35;;;11.00;93.40;;;;;;6184628;23;20272;-73
2023/04/28 06:31:20;;;;;;;6.65;4.40;;;10.90;93.80;;;;;;6184347;23;20599;-72
2023/04/28 06:33:48;;;;;;;7.18;4.47;;;10.80;93.80;;;;;;6184828;23;20191;-74
2023/04/28 06:36:16;;;;;;;6.80;4.93;;;11.00;94.30;;;;;;6183962;23;20485;-72
2023/04/28 06:38:44;;;;;;;9.60;4.57;;;11.10;93.90;;;;;;6185056;23;20238;-70
2023/04/28 06:41:11;;;;;;;5.85;4.90;;;11.10;93.60;;;;;;6186186;23;20241;-67
2023/04/28 06:43:38;;;;;;;5.43;3.90;;;11.10;93.40;;;;;;6185797;23;20246;-72
2023/04/28 06:46:05;;;;;;;5.78;4.55;;;11.30;93.40;;;;;;6185570;23;20584;-71
2023/04/28 06:48:32;;;;;;;8.07;4.30;;;11.40;93.00;;;;;;6185106;23;20592;-69
2023/04/28 06:51:02;;;;;;;8.45;5.30;;;11.70;92.80;;;;;;6184096;23;20615;-73
2023/04/28 06:53:29;;;;;;;8.45;4.47;;;12.10;92.30;;;;;;6185112;23;20230;-70
2023/04/28 06:55:56;;;;;;;8.27;4.35;;;12.40;91.60;;;;;;6184650;23;20267;-71
2023/04/28 06:58:23;;;;;;;9.98;4.15;;;13.00;91.10;;;;;;6185112;23;20168;-72
2023/04/28 07:00:50;;;;;;;6.35;4.03;;;14.20;89.40;;;;;;6184515;23;20188;-73
2023/04/28 07:03:17;;;;;;;5.47;4.90;;;14.80;85.80;;;;;;6184894;23;20173;-71
2023/04/28 07:05:44;;;;;;;8.73;4.30;;;15.30;84.30;;;;;;6185798;23;20162;-71
2023/04/28 07:08:12;;;;;;;6.80;4.90;;;15.40;83.40;;;;;;6185475;23;20255;-74
2023/04/28 07:10:39;;;;;;;7.05;5.15;;;15.30;82.20;;;;;;6184590;23;20393;-74
2023/04/28 07:13:06;;;;;;;7.70;4.65;;;15.00;82.60;;;;;;6185174;23;20191;-74
2023/04/28 07:15:32;;;;;;;8.32;4.75;;;14.60;82.50;;;;;;6184600;23;20167;-71
2023/04/28 07:18:00;;;;;;;6.72;4.22;;;14.20;83.00;;;;;;6184398;23;20169;-71
2023/04/28 07:20:27;;;;;;;8.77;5.38;;;13.70;84.10;;;;;;6184066;23;20662;-74
2023/04/28 07:22:53;;;;;;;8.02;4.53;;;13.50;85.80;;;;;;6184853;23;20196;-73
2023/04/28 07:25:22;;;;;;;6.20;4.65;;;13.40;86.70;;;;;;6185066;23;20196;-74
2023/04/28 07:27:49;;;;;;;9.40;6.88;;;13.40;87.10;;;;;;6184367;23;20240;-72
2023/04/28 07:30:16;;;;;;;7.40;5.20;;;13.40;87.00;;;;;;6184209;23;20203;-75
2023/04/28 07:32:43;;;;;;;7.13;4.78;;;13.20;87.30;;;;;;6184716;23;20247;-74
2023/04/28 07:35:10;;;;;;;8.18;5.80;;;13.20;87.70;;;;;;6185057;23;20168;-74
2023/04/28 07:37:37;;;;;;;8.45;4.95;;;13.00;88.40;;;;;;6185111;23;20257;-73
2023/04/28 07:40:06;;;;;;;10.23;5.75;;;13.10;89.40;;;;;;6183792;23;20283;-74
2023/04/28 07:42:35;;;;;;;9.70;5.15;;;13.20;89.10;;;;;;6185035;23;20219;-74
2023/04/28 07:45:02;;;;;;;9.63;5.30;;;13.10;88.70;;;;;;6184671;23;20656;-72
2023/04/28 07:47:29;;;;;;;9.20;5.72;;;13.10;89.40;;;;;;6185513;23;20596;-73
2023/04/28 07:49:57;;;;;;;7.70;5.13;;;13.10;89.40;;;;;;6183530;23;20671;-72
2023/04/28 07:52:24;;;;;;;8.00;5.10;;;13.20;89.50;;;;;;6184716;23;20308;-72
2023/04/28 07:54:51;;;;;;;10.40;7.10;;;13.20;89.50;;;;;;6184805;23;20171;-73
2023/04/28 07:57:18;;;;;;;8.30;5.50;;;13.20;89.50;;;;;;6184556;23;20275;-73
2023/04/28 07:59:46;;;;;;;7.25;5.05;;;13.10;89.60;;;;;;6184264;23;20240;-75
2023/04/28 08:02:13;;;;;;;12.00;5.80;;;13.00;90.10;;;;;;6186342;23;20646;-75
2023/04/28 08:04:40;;;;;;;9.15;6.68;;;12.90;90.00;;;;;;6186995;23;20191;-73
2023/04/28 08:07:08;;;;;;;9.70;5.70;;;12.90;90.30;;;;;;6186684;23;20246;-74
2023/04/28 08:09:35;;;;;;;9.50;5.85;;;13.00;90.20;;;;;;6184829;23;20667;-74
2023/04/28 08:12:04;;;;;;;7.00;5.38;;;13.10;90.10;;;;;;6186397;23;20227;-71
2023/04/28 08:14:31;;;;;;;9.40;5.35;;;13.20;89.60;;;;;;6186394;23;20219;-73
2023/04/28 08:17:00;;;;;;;10.60;5.82;;;13.40;89.40;;;;;;6186596;23;20185;-70
2023/04/28 08:19:27;;;;;;;10.95;5.97;;;13.60;89.30;;;;;;6186241;23;20509;-74
2023/04/28 08:21:54;;;;;;;10.07;6.10;;;13.90;88.70;;;;;;6186305;23;20164;-73
2023/04/28 08:24:21;;;;;;;11.40;6.40;;;14.20;88.00;;;;;;6186558;23;20264;-75
2023/04/28 08:26:48;;;;;;;7.22;6.20;;;14.30;87.70;;;;;;6186099;23;20240;-72
2023/04/28 08:29:15;;;;;;;8.55;6.68;;;14.50;87.70;;;;;;6186112;23;20200;-75
2023/04/28 08:31:43;;;;;;;8.90;6.75;;;14.50;87.50;;;;;;6185603;23;20166;-72
2023/04/28 08:34:11;;;;;;;7.57;6.10;;;14.50;87.70;;;;;;6188086;23;20216;-73
2023/04/28 08:36:38;;;;;;;7.97;6.20;;;14.40;87.70;;;;;;6185691;23;20185;-72
2023/04/28 08:39:07;;;;;;;7.20;6.03;;;14.30;88.10;;;;;;6186885;23;20197;-71
2023/04/28 08:41:38;;;;;;;12.05;6.90;;;14.20;88.60;;;;;;6186754;23;20609;-72
2023/04/28 08:44:08;;;;;;;10.63;6.05;;;14.30;88.60;;;;;;6188351;23;20193;-72
2023/04/28 08:46:38;;;;;;;8.50;6.47;;;14.10;88.60;;;;;;6188916;23;20552;-73
2023/04/28 08:49:07;;;;;;;12.65;6.38;;;14.00;89.10;;;;;;6188689;23;20287;-74
2023/04/28 08:51:44;;;;;;;12.93;6.88;;;14.10;89.50;;;;;;6189255;23;20161;-74
2023/04/28 08:54:14;;;;;;;15.68;8.35;;;14.20;89.90;;;;;;6191960;23;20168;-71
2023/04/28 08:56:44;;;;;;;13.82;6.68;;;14.40;89.70;;;;;;6190477;23;20196;-76
2023/04/28 08:59:13;;;;;;;11.32;7.55;;;14.40;89.80;;;;;;6186260;23;20228;-74
2023/04/28 09:01:39;;;;;;;8.68;7.15;;;14.30;88.50;;;;;;6185251;23;20239;-75
2023/04/28 09:04:09;;;;;;;10.68;6.65;;;14.30;88.70;;;;;;6186254;23;20229;-75
2023/04/28 09:06:38;;;;;;;9.38;7.65;;;14.50;89.20;;;;;;6184587;23;20240;-72
2023/04/28 09:09:30;;;;;;;11.10;7.55;;;14.60;88.90;;;;;;6185394;23;20231;-74
2023/04/28 09:11:58;;;;;;;11.13;7.05;;;14.40;89.00;;;;;;6176738;23;20212;-73
2023/04/28 09:14:26;;;;;;;15.23;7.95;;;14.30;89.50;;;;;;6185043;23;20164;-73
2023/04/28 09:16:53;;;;;;;13.63;8.85;;;14.20;89.70;;;;;;6185416;23;20718;-77
2023/04/28 09:19:20;;;;;;;9.48;7.50;;;14.20;90.30;;;;;;6185031;23;20710;-71
2023/04/28 09:21:50;;;;;;;8.23;6.88;;;14.10;90.30;;;;;;6184193;23;20512;-73
2023/04/28 09:24:30;;;;;;;11.98;7.80;;;14.10;90.30;;;;;;6185257;23;20168;-75
2023/04/28 09:26:58;;;;;;;11.38;7.60;;;14.10;90.30;;;;;;6185221;23;20466;-74
2023/04/28 09:29:25;;;;;;;12.35;9.98;;;14.20;90.40;;;;;;6184523;23;20200;-74
2023/04/28 09:31:53;;;;;;;14.70;7.45;;;14.30;91.90;;;;;;6185291;23;20184;-74
2023/04/28 09:34:20;;;;;;;10.15;8.00;;;14.60;90.60;;;;;;6184306;23;20395;-74
2023/04/28 09:36:48;;;;;;;14.02;7.57;;;14.60;90.50;;;;;;6185261;23;20601;-74
2023/04/28 09:39:27;;;;;;;11.80;8.68;;;14.60;90.20;;;;;;6184727;23;20279;-72
2023/04/28 09:41:54;;;;;;;11.35;7.72;;;14.60;90.70;;;;;;6185243;23;20243;-73
2023/04/28 09:44:22;;;;;;;14.15;8.60;;;14.60;91.00;;;;;;6185322;23;20161;-74
2023/04/28 09:46:49;;;;;;;9.82;8.02;;;14.70;91.90;;;;;;6184928;23;20400;-74
2023/04/28 09:49:16;;;;;;;9.77;7.82;;;14.70;91.80;;;;;;6185064;23;20271;-73
2023/04/28 09:51:43;;;;;;;11.70;8.32;;;14.90;92.30;;;;;;6184920;23;20203;-70
2023/04/28 09:54:13;;;;;;;9.55;7.95;;;15.00;92.00;;;;;;6184556;23;20608;-71
2023/04/28 09:56:43;;;;;;;12.60;7.55;;;15.10;92.60;;;;;;6184933;23;20204;-74
2023/04/28 09:59:11;;;;;;;14.50;7.93;;;15.00;92.40;;;;;;6184593;23;20252;-75
2023/04/28 10:01:41;;;;;;;11.32;8.25;;;15.20;93.20;;;;;;6183969;23;20182;-74
2023/04/28 10:04:10;;;;;;;9.55;8.38;;;15.20;92.60;;;;;;6185210;23;20248;-75
2023/04/28 10:06:38;;;;;;;13.98;9.07;;;15.10;93.50;;;;;;6184918;23;20172;-75
2023/04/28 10:09:06;;;;;;;8.32;7.53;;;14.90;93.60;;;;;;6184989;23;20240;-73
2023/04/28 10:11:35;;;;;;;13.20;9.27;;;14.90;95.20;;;;;;6184453;23;20267;-75
2023/04/28 10:14:01;;;;;;;9.27;7.90;;;14.90;96.40;;;;;;6184398;23;20183;-74
2023/04/28 10:16:31;;;;;;;14.47;8.97;;;15.20;95.80;;;;;;6184658;23;20433;-73
2023/04/28 10:19:02;;;;;;;13.80;10.30;;;15.50;94.50;;;;;;6184320;23;20913;-73
2023/04/28 10:21:32;;;;;;;15.90;10.20;;;15.60;94.50;;;;;;6184277;23;20252;-75
2023/04/28 10:24:07;;;;;;;12.87;9.27;;;15.90;93.10;;;;;;6184927;23;20191;-75
2023/04/28 10:27:03;;;;;;;14.10;9.00;;;16.20;93.40;;;;;;6185777;23;20453;-75
2023/04/28 10:29:32;;;;;;;9.90;8.20;;;16.20;93.30;;;;;;6184187;23;20431;-74
2023/04/28 10:32:18;;;;;;;13.30;9.53;;;16.10;92.30;;;;;;6185180;23;20403;-74
2023/04/28 10:34:45;;;;;;;10.10;8.13;;;15.80;91.40;;;;;;6185457;23;20472;-74
2023/04/28 10:37:13;;;;;;;10.65;8.18;;;15.50;91.80;;;;;;6184834;23;20265;-74
2023/04/28 10:39:40;;;;;;;10.57;7.65;;;15.50;92.00;;;;;;6184371;23;20201;-73
2023/04/28 10:42:41;;;;;;;12.32;9.07;;;15.40;92.10;;;;;;6185011;23;20634;-75
2023/04/28 10:45:10;;;;;;;11.00;9.57;;;15.50;92.20;;;;;;6184741;23;20172;-73
2023/04/28 10:48:03;;;;;;;9.98;8.75;;;15.60;92.50;;;;;;6184734;23;20241;-75
2023/04/28 10:50:30;;;;;;;13.07;8.75;;;15.50;92.20;;;;;;6184095;23;20203;-74
2023/04/28 10:52:57;;;;;;;14.88;8.90;;;15.50;92.60;;;;;;6185075;23;20468;-75
2023/04/28 10:55:31;;;;;;;11.82;9.25;;;15.50;92.30;;;;;;6184881;23;20170;-72
2023/04/28 10:58:32;;;;;;;10.95;9.85;;;15.30;92.60;;;;;;6184301;23;20258;-75
2023/04/28 11:01:29;;;;;;;11.32;8.40;;;15.20;92.90;;;;;;6184529;23;20481;-75
2023/04/28 11:04:02;;;;;;;11.73;9.48;;;15.10;93.00;;;;;;6178083;23;20178;-74
2023/04/28 11:06:31;;;;;;;10.15;8.60;;;15.10;93.30;;;;;;6187965;23;20164;-75
2023/04/28 11:09:00;;;;;;;15.05;10.50;;;15.10;93.20;;;;;;6186626;23;20204;-73
2023/04/28 11:11:27;;;;;;;11.02;8.90;;;15.10;93.00;;;;;;6184969;23;20161;-74
2023/04/28 11:14:15;;;;;;;14.90;8.90;;;15.10;93.40;;;;;;6185215;23;20172;-73
2023/04/28 11:16:51;;;;;;;11.48;8.10;;;15.20;93.20;;;;;;6184406;23;20182;-74
2023/04/28 11:19:20;;;;;;;10.48;9.15;;;15.20;93.10;;;;;;6183272;23;20768;-74
2023/04/28 11:21:47;;;;;;;13.82;9.10;;;15.30;93.10;;;;;;6183876;23;20212;-75
2023/04/28 11:24:14;;;;;;;18.15;9.35;;;15.30;92.80;;;;;;6184176;23;20246;-75
2023/04/28 11:26:42;;;;;;;16.55;9.40;;;15.20;92.70;;;;;;6184515;23;20166;-74
2023/04/28 11:29:10;;;;;;;19.08;9.10;;;15.20;93.00;;;;;;6184234;23;20200;-74
2023/04/28 11:31:37;;;;;;;16.13;10.90;;;15.40;92.70;;;;;;6184778;23;20211;-74
2023/04/28 11:34:10;;;;;;;17.50;10.27;;;15.40;92.40;;;;;;6184084;23;20277;-75
2023/04/28 11:36:39;;;;;;;27.52;11.40;;;15.20;92.70;;;;;;6186855;23;20160;-76
2023/04/28 11:39:08;;;;;;;14.50;9.77;;;15.00;93.40;;;;;;6186091;23;20601;-73
2023/04/28 11:41:35;;;;;;;14.68;10.90;;;15.00;93.60;;;;;;6186812;23;20248;-75
2023/04/28 11:44:11;;;;;;;12.25;9.75;;;14.90;93.70;;;;;;6186920;23;20527;-74
2023/04/28 11:46:45;;;;;;;10.20;8.70;;;14.90;93.70;;;;;;6186537;23;20624;-75
2023/04/28 11:49:14;;;;;;;12.25;10.25;;;14.90;94.00;;;;;;6158989;23;20199;-75
2023/04/28 11:51:44;;;;;;;12.98;10.18;;;14.90;93.40;;;;;;6185866;23;20164;-76
2023/04/28 11:54:13;;;;;;;16.42;11.32;;;14.90;93.50;;;;;;6186444;23;20161;-74
2023/04/28 11:56:41;;;;;;;13.13;9.82;;;14.80;93.30;;;;;;6186425;23;20191;-75
2023/04/28 11:59:11;;;;;;;16.23;9.93;;;14.90;93.30;;;;;;6186568;23;20212;-74
2023/04/28 12:01:46;;;;;;;14.27;11.00;;;14.90;93.20;;;;;;6186099;23;20244;-75
2023/04/28 12:04:26;;;;;;;12.35;9.38;;;15.00;93.30;;;;;;6186941;23;20192;-76
2023/04/28 12:07:00;;;;;;;13.82;10.20;;;15.10;93.20;;;;;;6188814;23;20663;-76
2023/04/28 12:09:27;;;;;;;11.95;9.77;;;14.90;92.80;;;;;;6159233;23;20259;-74
2023/04/28 12:11:58;;;;;;;12.15;9.73;;;14.80;93.00;;;;;;6186085;23;20640;-73
2023/04/28 12:14:25;;;;;;;18.25;10.95;;;14.80;93.10;;;;;;6186537;23;20215;-74
2023/04/28 12:16:52;;;;;;;19.58;10.93;;;14.90;93.30;;;;;;6186083;23;20241;-74
2023/04/28 12:19:20;;;;;;;12.13;10.82;;;14.90;93.10;;;;;;6186027;23;20279;-75
2023/04/28 12:22:04;;;;;;;20.70;11.60;;;14.90;93.00;;;;;;6185496;23;20161;-75
2023/04/28 12:24:31;;;;;;;16.35;10.70;;;15.20;92.90;;;;;;6186363;23;20193;-73
2023/04/28 12:27:14;;;;;;;13.88;10.55;;;15.50;92.80;;;;;;6186262;23;20244;-75
2023/04/28 12:29:44;;;;;;;13.55;8.80;;;15.50;92.60;;;;;;6183851;23;20195;-77
2023/04/28 12:32:12;;;;;;;11.57;10.25;;;15.40;92.70;;;;;;6186467;23;20161;-76
2023/04/28 12:34:42;;;;;;;15.63;10.30;;;15.30;92.90;;;;;;6186096;23;20216;-78
2023/04/28 12:37:08;;;;;;;12.88;11.07;;;15.40;93.00;;;;;;6186198;23;20186;-76
2023/04/28 12:39:36;;;;;;;12.93;9.85;;;15.40;93.00;;;;;;6184821;23;20207;-76
2023/04/28 12:42:05;;;;;;;12.13;9.55;;;15.50;93.00;;;;;;6186446;23;20169;-76
2023/04/28 12:44:36;;;;;;;11.82;9.10;;;15.60;93.00;;;;;;6185659;23;20173;-74
2023/04/28 12:47:06;;;;;;;12.77;9.43;;;15.60;92.80;;;;;;6186430;23;20176;-77